Aeroporto :
LOGIN :

Iscrizione | Disclaimer

   EN    FR    IT 

 










Sommario :    VFR   VFR Marginale   IFR   IFR Intensivo   IFR Molto Intensivo
Visibilità : 
Base nubi : 
>= 8 km
>= 3000ft
5 / 8 km
1000 / 3000 ft
1500m / 5 km
500 / 1000 ft
800 / 1500m
200 / 500 ft
< 800m
< 200 ft
Simboli :   Temporali  Nebbia  Neve Forte  Precipitazioni Forti  Vento > 20 kt
SIGMETs :   Varie  Temporali  Ghiacco  Turbolenza  Onda orograficha  Ceneri Vulcaniche






- Altitudine del aeroporto : 433 ft
- Codice IATA : CCF


LFMK - Carcassonne

ULTIMO METAR :
  • 200600Z AUTO 11004KT 070V160 9999 BKN030 03/02 Q1012 TEMPO 3000 BR

METARs OBSOLETI :
  • 200530Z AUTO 09005KT 9999 SCT019 OVC028 02/02 Q1012 TEMPO 3000 BR
  • 200500Z AUTO 09008KT 9999 OVC019 02/02 Q1012 TEMPO 3000 BR
  • 200430Z AUTO VRB02KT 7000 BKN018 01/00 Q1012 TEMPO 3000 BR BECMG 09012KT
  • 200400Z AUTO 08005KT 9000 BKN019 00/00 Q1012 TEMPO 3000 BR

TAF AMD TAF LFMK
Valido dal 20 a 05 ore il 21 a 03 ore UTC


200530Z 2005/2103 09006KT 9999 BKN020
PROB30
TEMPO 2005/2008 3000 BR
BECMG 2006/2008 09012KT
TEMPO 2008/2015 BKN014
TEMPO 2011/2015 09015G25KT
BECMG 2018/2020 CAVOK



MetMap, La meteo Aeronautica in un colpo d'occhio ! - Copyright ORBIFLY Dicembre 2007 - Disclaimer

ORBIFLY MET'MAP TEAM :

Programmazione e sviluppo : Alexandra Zaïnal
Concezione e sviluppo : Baudouin d'Aumeries
Co-Programmazione e sviluppo : Marc-Olivier Méhu
Supporto tecnico e logistico : Manuel Goepfert
Aiuto per la traduzione : Arnaldo La Scala

Contatto : metmap@orbifly.com




FONTI E CREDITI :

   NOAA